sensor_id;sensor_type;location;lat;lon;timestamp;pressure;altitude;pressure_sealevel;temperature;humidity
30339;BME280;795;49.296;11.348;2023-03-24T00:01:15;95620.16;;;11.93;100.00
30339;BME280;795;49.296;11.348;2023-03-24T00:03:43;95618.94;;;11.96;100.00
30339;BME280;795;49.296;11.348;2023-03-24T00:06:14;95601.47;;;11.85;100.00
30339;BME280;795;49.296;11.348;2023-03-24T00:08:44;95555.31;;;11.54;100.00
30339;BME280;795;49.296;11.348;2023-03-24T00:11:14;95615.13;;;11.84;100.00
30339;BME280;795;49.296;11.348;2023-03-24T00:13:44;95538.41;;;11.32;100.00
30339;BME280;795;49.296;11.348;2023-03-24T00:16:15;95569.09;;;11.45;100.00
30339;BME280;795;49.296;11.348;2023-03-24T00:18:45;95529.22;;;11.20;100.00
30339;BME280;795;49.296;11.348;2023-03-24T00:21:20;95594.28;;;11.65;100.00
30339;BME280;795;49.296;11.348;2023-03-24T00:23:51;95594.16;;;11.52;100.00
30339;BME280;795;49.296;11.348;2023-03-24T00:26:21;95543.06;;;11.24;100.00
30339;BME280;795;49.296;11.348;2023-03-24T00:28:52;95599.59;;;11.58;100.00
30339;BME280;795;49.296;11.348;2023-03-24T00:31:19;95586.59;;;11.62;100.00
30339;BME280;795;49.296;11.348;2023-03-24T00:33:47;95568.84;;;11.40;100.00
30339;BME280;795;49.296;11.348;2023-03-24T00:36:20;95568.22;;;11.38;100.00
30339;BME280;795;49.296;11.348;2023-03-24T00:38:49;95596.28;;;11.56;100.00
30339;BME280;795;49.296;11.348;2023-03-24T00:41:18;95547.56;;;11.38;100.00
30339;BME280;795;49.296;11.348;2023-03-24T00:43:48;95584.53;;;11.64;100.00
30339;BME280;795;49.296;11.348;2023-03-24T00:46:17;95591.78;;;11.63;100.00
30339;BME280;795;49.296;11.348;2023-03-24T00:49:00;95582.44;;;11.59;100.00
30339;BME280;795;49.296;11.348;2023-03-24T00:51:39;95587.38;;;11.56;100.00
30339;BME280;795;49.296;11.348;2023-03-24T00:54:11;95580.78;;;11.58;100.00
30339;BME280;795;49.296;11.348;2023-03-24T00:56:39;95591.53;;;11.58;100.00
30339;BME280;795;49.296;11.348;2023-03-24T00:59:08;95593.63;;;11.35;100.00
30339;BME280;795;49.296;11.348;2023-03-24T01:01:37;95551.06;;;10.90;100.00
30339;BME280;795;49.296;11.348;2023-03-24T01:04:06;95548.03;;;10.78;100.00
30339;BME280;795;49.296;11.348;2023-03-24T01:06:36;95513.69;;;10.52;100.00
30339;BME280;795;49.296;11.348;2023-03-24T01:09:05;95481.09;;;10.34;100.00
30339;BME280;795;49.296;11.348;2023-03-24T01:11:40;95581.22;;;10.92;100.00
30339;BME280;795;49.296;11.348;2023-03-24T01:14:09;95580.28;;;10.99;100.00
30339;BME280;795;49.296;11.348;2023-03-24T01:16:37;95535.19;;;10.74;100.00
30339;BME280;795;49.296;11.348;2023-03-24T01:19:05;95579.59;;;10.97;100.00
30339;BME280;795;49.296;11.348;2023-03-24T01:21:32;95534.47;;;10.65;100.00
30339;BME280;795;49.296;11.348;2023-03-24T01:24:00;95554.53;;;10.69;100.00
30339;BME280;795;49.296;11.348;2023-03-24T01:26:28;95594.81;;;10.90;100.00
30339;BME280;795;49.296;11.348;2023-03-24T01:28:56;95605.06;;;10.80;100.00
30339;BME280;795;49.296;11.348;2023-03-24T01:31:23;95523.31;;;10.26;100.00
30339;BME280;795;49.296;11.348;2023-03-24T01:33:50;95595.28;;;10.73;100.00
30339;BME280;795;49.296;11.348;2023-03-24T01:36:17;95545.88;;;10.31;100.00
30339;BME280;795;49.296;11.348;2023-03-24T01:38:44;95509.88;;;10.11;100.00
30339;BME280;795;49.296;11.348;2023-03-24T01:41:11;95597.22;;;10.64;100.00
30339;BME280;795;49.296;11.348;2023-03-24T01:43:38;95603.81;;;10.61;100.00
30339;BME280;795;49.296;11.348;2023-03-24T01:46:21;95462.25;;;9.77;100.00
30339;BME280;795;49.296;11.348;2023-03-24T01:49:05;95607.22;;;10.70;100.00
30339;BME280;795;49.296;11.348;2023-03-24T01:51:44;95577.16;;;10.60;100.00
30339;BME280;795;49.296;11.348;2023-03-24T01:54:28;95576.13;;;10.61;100.00
30339;BME280;795;49.296;11.348;2023-03-24T01:57:24;95517.31;;;10.24;100.00
30339;BME280;795;49.296;11.348;2023-03-24T01:59:59;95601.13;;;10.83;100.00
30339;BME280;795;49.296;11.348;2023-03-24T02:02:30;95532.69;;;10.51;100.00
30339;BME280;795;49.296;11.348;2023-03-24T02:05:06;95442.06;;;9.81;100.00
30339;BME280;795;49.296;11.348;2023-03-24T02:10:39;95581.38;;;10.69;100.00
30339;BME280;795;49.296;11.348;2023-03-24T02:13:06;95537.78;;;10.46;100.00
30339;BME280;795;49.296;11.348;2023-03-24T02:15:51;95498.63;;;10.16;100.00
30339;BME280;795;49.296;11.348;2023-03-24T02:19:17;95478.91;;;10.09;100.00
30339;BME280;795;49.296;11.348;2023-03-24T02:28:49;95491.41;;;10.16;100.00
30339;BME280;795;49.296;11.348;2023-03-24T02:31:29;95538.41;;;10.48;100.00
30339;BME280;795;49.296;11.348;2023-03-24T02:35:10;95509.69;;;10.27;100.00
30339;BME280;795;49.296;11.348;2023-03-24T02:38:42;95536.47;;;10.42;100.00
30339;BME280;795;49.296;11.348;2023-03-24T02:41:28;95479.91;;;10.22;100.00
30339;BME280;795;49.296;11.348;2023-03-24T02:47:22;95504.63;;;10.18;100.00
30339;BME280;795;49.296;11.348;2023-03-24T02:50:26;95502.53;;;10.34;100.00
30339;BME280;795;49.296;11.348;2023-03-24T02:53:23;95506.06;;;10.35;100.00
30339;BME280;795;49.296;11.348;2023-03-24T02:56:38;95412.38;;;9.97;100.00
30339;BME280;795;49.296;11.348;2023-03-24T02:59:41;95424.66;;;10.07;100.00
30339;BME280;795;49.296;11.348;2023-03-24T03:02:25;95404.50;;;9.96;100.00
30339;BME280;795;49.296;11.348;2023-03-24T03:05:07;95465.00;;;10.34;100.00
30339;BME280;795;49.296;11.348;2023-03-24T03:07:42;95374.97;;;9.89;100.00
30339;BME280;795;49.296;11.348;2023-03-24T03:10:23;95469.09;;;10.51;100.00
30339;BME280;795;49.296;11.348;2023-03-24T03:12:58;95370.06;;;9.93;100.00
30339;BME280;795;49.296;11.348;2023-03-24T03:15:53;95376.50;;;9.98;100.00
30339;BME280;795;49.296;11.348;2023-03-24T03:18:37;95377.06;;;9.94;100.00
30339;BME280;795;49.296;11.348;2023-03-24T03:21:14;95335.91;;;9.80;100.00
30339;BME280;795;49.296;11.348;2023-03-24T03:24:03;95425.41;;;10.36;100.00
30339;BME280;795;49.296;11.348;2023-03-24T03:26:33;95409.63;;;10.27;100.00
30339;BME280;795;49.296;11.348;2023-03-24T03:29:14;95406.13;;;10.26;100.00
30339;BME280;795;49.296;11.348;2023-03-24T03:31:58;95445.66;;;10.60;100.00
30339;BME280;795;49.296;11.348;2023-03-24T03:34:37;95436.81;;;10.66;100.00
30339;BME280;795;49.296;11.348;2023-03-24T03:37:25;95443.22;;;10.65;100.00
30339;BME280;795;49.296;11.348;2023-03-24T03:40:09;95407.69;;;10.42;100.00
30339;BME280;795;49.296;11.348;2023-03-24T03:42:39;95373.22;;;10.18;100.00
30339;BME280;795;49.296;11.348;2023-03-24T03:45:09;95441.94;;;10.61;100.00
30339;BME280;795;49.296;11.348;2023-03-24T03:47:37;95338.00;;;10.06;100.00
30339;BME280;795;49.296;11.348;2023-03-24T03:50:06;95390.28;;;10.31;100.00
30339;BME280;795;49.296;11.348;2023-03-24T03:52:37;95358.03;;;10.10;100.00
30339;BME280;795;49.296;11.348;2023-03-24T03:55:07;95438.91;;;10.71;100.00
30339;BME280;795;49.296;11.348;2023-03-24T03:57:35;95438.25;;;10.62;100.00
30339;BME280;795;49.296;11.348;2023-03-24T04:00:06;95434.66;;;10.55;100.00
30339;BME280;795;49.296;11.348;2023-03-24T04:03:37;95433.00;;;10.54;100.00
30339;BME280;795;49.296;11.348;2023-03-24T04:07:11;95379.72;;;10.30;100.00
30339;BME280;795;49.296;11.348;2023-03-24T04:10:24;95256.56;;;9.65;100.00
30339;BME280;795;49.296;11.348;2023-03-24T04:13:37;95405.34;;;10.53;100.00
30339;BME280;795;49.296;11.348;2023-03-24T04:16:14;95413.13;;;10.70;100.00
30339;BME280;795;49.296;11.348;2023-03-24T04:19:32;95425.06;;;10.95;100.00
30339;BME280;795;49.296;11.348;2023-03-24T04:25:31;95407.94;;;11.23;100.00
30339;BME280;795;49.296;11.348;2023-03-24T04:28:48;95370.44;;;11.09;100.00
30339;BME280;795;49.296;11.348;2023-03-24T04:31:41;95402.88;;;11.42;100.00
30339;BME280;795;49.296;11.348;2023-03-24T04:34:31;95295.28;;;10.81;100.00
30339;BME280;795;49.296;11.348;2023-03-24T04:37:31;95329.34;;;11.08;100.00
30339;BME280;795;49.296;11.348;2023-03-24T04:40:07;95420.16;;;11.67;100.00
30339;BME280;795;49.296;11.348;2023-03-24T04:42:45;95418.75;;;11.71;100.00
30339;BME280;795;49.296;11.348;2023-03-24T04:45:16;95310.75;;;11.07;100.00
30339;BME280;795;49.296;11.348;2023-03-24T04:47:51;95329.00;;;11.24;100.00
30339;BME280;795;49.296;11.348;2023-03-24T04:50:39;95348.25;;;11.34;100.00
30339;BME280;795;49.296;11.348;2023-03-24T04:53:08;95399.06;;;11.64;100.00
30339;BME280;795;49.296;11.348;2023-03-24T04:58:19;95415.69;;;11.74;100.00
30339;BME280;795;49.296;11.348;2023-03-24T05:00:47;95261.22;;;10.82;100.00
30339;BME280;795;49.296;11.348;2023-03-24T05:03:17;95382.06;;;11.57;100.00
30339;BME280;795;49.296;11.348;2023-03-24T05:05:48;95419.63;;;11.84;100.00
30339;BME280;795;49.296;11.348;2023-03-24T05:08:18;95351.78;;;11.35;100.00
30339;BME280;795;49.296;11.348;2023-03-24T05:10:46;95361.94;;;11.40;100.00
30339;BME280;795;49.296;11.348;2023-03-24T05:13:14;95425.63;;;11.80;100.00
30339;BME280;795;49.296;11.348;2023-03-24T05:15:42;95407.00;;;11.78;100.00
30339;BME280;795;49.296;11.348;2023-03-24T05:18:09;95398.66;;;11.67;100.00
30339;BME280;795;49.296;11.348;2023-03-24T05:20:37;95382.94;;;11.64;100.00
30339;BME280;795;49.296;11.348;2023-03-24T05:23:04;95410.34;;;11.87;100.00
30339;BME280;795;49.296;11.348;2023-03-24T05:25:31;95418.00;;;11.90;100.00
30339;BME280;795;49.296;11.348;2023-03-24T05:27:58;95296.53;;;11.19;100.00
30339;BME280;795;49.296;11.348;2023-03-24T05:30:25;95376.38;;;11.73;100.00
30339;BME280;795;49.296;11.348;2023-03-24T05:32:52;95393.41;;;11.86;100.00
30339;BME280;795;49.296;11.348;2023-03-24T05:35:19;95353.63;;;11.69;100.00
30339;BME280;795;49.296;11.348;2023-03-24T05:37:46;95409.78;;;12.11;100.00
30339;BME280;795;49.296;11.348;2023-03-24T05:40:13;95318.81;;;11.61;100.00
30339;BME280;795;49.296;11.348;2023-03-24T05:42:41;95363.66;;;12.08;100.00
30339;BME280;795;49.296;11.348;2023-03-24T05:45:10;95385.00;;;12.35;100.00
30339;BME280;795;49.296;11.348;2023-03-24T05:47:37;95407.22;;;12.57;100.00
30339;BME280;795;49.296;11.348;2023-03-24T05:50:05;95326.84;;;12.15;100.00
30339;BME280;795;49.296;11.348;2023-03-24T05:52:34;95405.97;;;12.73;100.00
30339;BME280;795;49.296;11.348;2023-03-24T05:55:02;95349.44;;;12.40;100.00
30339;BME280;795;49.296;11.348;2023-03-24T05:57:29;95407.84;;;12.85;100.00
30339;BME280;795;49.296;11.348;2023-03-24T05:59:56;95408.91;;;12.91;100.00
30339;BME280;795;49.296;11.348;2023-03-24T06:02:23;95415.09;;;12.91;100.00
30339;BME280;795;49.296;11.348;2023-03-24T06:04:51;95370.16;;;12.59;100.00
30339;BME280;795;49.296;11.348;2023-03-24T06:07:18;95338.47;;;12.35;100.00
30339;BME280;795;49.296;11.348;2023-03-24T06:09:45;95393.53;;;12.72;100.00
30339;BME280;795;49.296;11.348;2023-03-24T06:12:13;95433.53;;;13.01;100.00
30339;BME280;795;49.296;11.348;2023-03-24T06:14:41;95436.66;;;12.85;100.00
30339;BME280;795;49.296;11.348;2023-03-24T06:17:09;95427.53;;;12.66;100.00
30339;BME280;795;49.296;11.348;2023-03-24T06:19:42;95313.91;;;11.71;100.00
30339;BME280;795;49.296;11.348;2023-03-24T06:22:18;95430.16;;;12.33;100.00
30339;BME280;795;49.296;11.348;2023-03-24T06:24:46;95429.69;;;12.17;100.00
30339;BME280;795;49.296;11.348;2023-03-24T06:27:13;95349.00;;;11.63;100.00
30339;BME280;795;49.296;11.348;2023-03-24T06:29:40;95420.09;;;11.94;100.00
30339;BME280;795;49.296;11.348;2023-03-24T06:32:10;95337.59;;;11.48;100.00
30339;BME280;795;49.296;11.348;2023-03-24T06:34:37;95412.88;;;11.95;100.00
30339;BME280;795;49.296;11.348;2023-03-24T06:37:06;95332.41;;;11.46;100.00
30339;BME280;795;49.296;11.348;2023-03-24T06:39:32;95406.63;;;11.88;100.00
30339;BME280;795;49.296;11.348;2023-03-24T06:41:59;95406.38;;;11.70;100.00
30339;BME280;795;49.296;11.348;2023-03-24T06:44:26;95406.41;;;11.83;100.00
30339;BME280;795;49.296;11.348;2023-03-24T06:46:53;95292.50;;;11.02;100.00
30339;BME280;795;49.296;11.348;2023-03-24T06:49:20;95274.91;;;10.93;100.00
30339;BME280;795;49.296;11.348;2023-03-24T06:51:47;95376.06;;;11.55;100.00
30339;BME280;795;49.296;11.348;2023-03-24T06:54:14;95341.03;;;11.35;100.00
30339;BME280;795;49.296;11.348;2023-03-24T06:56:43;95336.88;;;11.26;100.00
30339;BME280;795;49.296;11.348;2023-03-24T06:59:10;95406.88;;;11.59;100.00
30339;BME280;795;49.296;11.348;2023-03-24T07:01:37;95413.38;;;11.71;100.00
30339;BME280;795;49.296;11.348;2023-03-24T07:04:05;95436.00;;;11.89;100.00
30339;BME280;795;49.296;11.348;2023-03-24T07:06:32;95414.09;;;11.92;100.00
30339;BME280;795;49.296;11.348;2023-03-24T07:09:13;95443.13;;;12.10;100.00
30339;BME280;795;49.296;11.348;2023-03-24T07:11:40;95449.16;;;12.19;100.00
30339;BME280;795;49.296;11.348;2023-03-24T07:14:08;95327.84;;;11.47;100.00
30339;BME280;795;49.296;11.348;2023-03-24T07:16:35;95456.00;;;12.21;100.00
30339;BME280;795;49.296;11.348;2023-03-24T07:19:02;95446.91;;;12.22;100.00
30339;BME280;795;49.296;11.348;2023-03-24T07:21:29;95428.84;;;12.16;100.00
30339;BME280;795;49.296;11.348;2023-03-24T07:23:56;95453.91;;;12.17;100.00
30339;BME280;795;49.296;11.348;2023-03-24T07:26:22;95475.81;;;12.14;100.00
30339;BME280;795;49.296;11.348;2023-03-24T07:28:49;95478.66;;;11.99;100.00
30339;BME280;795;49.296;11.348;2023-03-24T07:31:16;95480.53;;;11.98;100.00
30339;BME280;795;49.296;11.348;2023-03-24T07:33:43;95423.00;;;11.59;100.00
30339;BME280;795;49.296;11.348;2023-03-24T07:36:10;95416.16;;;11.50;100.00
30339;BME280;795;49.296;11.348;2023-03-24T07:38:37;95486.19;;;12.17;100.00
30339;BME280;795;49.296;11.348;2023-03-24T07:41:04;95470.66;;;12.12;100.00
30339;BME280;795;49.296;11.348;2023-03-24T07:43:31;95490.81;;;12.29;100.00
30339;BME280;795;49.296;11.348;2023-03-24T07:45:58;95425.38;;;11.75;100.00
30339;BME280;795;49.296;11.348;2023-03-24T07:48:25;95522.25;;;12.22;100.00
30339;BME280;795;49.296;11.348;2023-03-24T07:50:52;95456.19;;;11.72;100.00
30339;BME280;795;49.296;11.348;2023-03-24T07:53:19;95375.25;;;11.20;100.00
30339;BME280;795;49.296;11.348;2023-03-24T07:55:46;95431.88;;;11.53;100.00
30339;BME280;795;49.296;11.348;2023-03-24T07:58:14;95511.38;;;11.96;100.00
30339;BME280;795;49.296;11.348;2023-03-24T08:00:41;95513.47;;;12.07;100.00
30339;BME280;795;49.296;11.348;2023-03-24T08:03:13;95491.75;;;12.09;100.00
30339;BME280;795;49.296;11.348;2023-03-24T08:05:42;95510.47;;;12.30;100.00
30339;BME280;795;49.296;11.348;2023-03-24T08:08:09;95509.03;;;12.40;100.00
30339;BME280;795;49.296;11.348;2023-03-24T08:10:36;95508.72;;;12.63;100.00
30339;BME280;795;49.296;11.348;2023-03-24T08:13:03;95494.81;;;12.59;100.00
30339;BME280;795;49.296;11.348;2023-03-24T08:15:30;95510.59;;;12.82;100.00
30339;BME280;795;49.296;11.348;2023-03-24T08:17:57;95504.59;;;12.87;100.00
30339;BME280;795;49.296;11.348;2023-03-24T08:20:25;95474.56;;;12.90;100.00
30339;BME280;795;49.296;11.348;2023-03-24T08:22:53;95466.31;;;12.98;100.00
30339;BME280;795;49.296;11.348;2023-03-24T08:25:24;95509.66;;;13.36;100.00
30339;BME280;795;49.296;11.348;2023-03-24T08:27:52;95440.19;;;13.18;100.00
30339;BME280;795;49.296;11.348;2023-03-24T08:30:23;95498.84;;;13.68;100.00
30339;BME280;795;49.296;11.348;2023-03-24T08:32:58;95484.28;;;13.76;100.00
30339;BME280;795;49.296;11.348;2023-03-24T08:35:33;95506.88;;;13.94;100.00
30339;BME280;795;49.296;11.348;2023-03-24T08:38:06;95380.28;;;13.16;100.00
30339;BME280;795;49.296;11.348;2023-03-24T08:40:37;95458.00;;;13.45;100.00
30339;BME280;795;49.296;11.348;2023-03-24T08:43:11;95505.22;;;13.87;100.00
30339;BME280;795;49.296;11.348;2023-03-24T08:45:40;95520.34;;;13.88;100.00
30339;BME280;795;49.296;11.348;2023-03-24T08:48:08;95451.34;;;13.54;100.00
30339;BME280;795;49.296;11.348;2023-03-24T08:50:40;95521.22;;;13.69;100.00
30339;BME280;795;49.296;11.348;2023-03-24T08:53:09;95440.78;;;12.94;100.00
30339;BME280;795;49.296;11.348;2023-03-24T08:55:40;95518.97;;;13.33;100.00
30339;BME280;795;49.296;11.348;2023-03-24T08:58:16;95503.19;;;13.04;100.00
30339;BME280;795;49.296;11.348;2023-03-24T09:03:36;95464.34;;;12.52;100.00
30339;BME280;795;49.296;11.348;2023-03-24T09:06:06;95539.44;;;12.88;100.00
30339;BME280;795;49.296;11.348;2023-03-24T09:08:34;95557.00;;;12.71;100.00
30339;BME280;795;49.296;11.348;2023-03-24T09:11:01;95521.69;;;12.40;100.00
30339;BME280;795;49.296;11.348;2023-03-24T09:13:28;95567.09;;;12.56;100.00
30339;BME280;795;49.296;11.348;2023-03-24T09:16:02;95565.63;;;12.47;100.00
30339;BME280;795;49.296;11.348;2023-03-24T09:18:29;95572.00;;;12.39;100.00
30339;BME280;795;49.296;11.348;2023-03-24T09:20:56;95586.88;;;12.35;100.00
30339;BME280;795;49.296;11.348;2023-03-24T09:23:23;95538.44;;;11.94;100.00
30339;BME280;795;49.296;11.348;2023-03-24T09:25:52;95512.22;;;11.69;100.00
30339;BME280;795;49.296;11.348;2023-03-24T09:28:20;95581.13;;;12.04;100.00
30339;BME280;795;49.296;11.348;2023-03-24T09:30:48;95611.56;;;12.11;100.00
30339;BME280;795;49.296;11.348;2023-03-24T09:33:16;95544.19;;;11.85;100.00
30339;BME280;795;49.296;11.348;2023-03-24T09:35:43;95601.25;;;12.15;100.00
30339;BME280;795;49.296;11.348;2023-03-24T09:38:10;95598.31;;;12.03;100.00
30339;BME280;795;49.296;11.348;2023-03-24T09:40:41;95537.97;;;11.57;100.00
30339;BME280;795;49.296;11.348;2023-03-24T09:43:37;95602.75;;;11.89;100.00
30339;BME280;795;49.296;11.348;2023-03-24T09:48:59;95564.22;;;11.55;100.00
30339;BME280;795;49.296;11.348;2023-03-24T09:51:44;95596.06;;;11.79;100.00
30339;BME280;795;49.296;11.348;2023-03-24T09:54:46;95533.19;;;11.52;100.00
30339;BME280;795;49.296;11.348;2023-03-24T09:57:42;95536.78;;;11.66;100.00
30339;BME280;795;49.296;11.348;2023-03-24T10:02:51;95529.56;;;11.39;100.00
30339;BME280;795;49.296;11.348;2023-03-24T10:05:53;95574.50;;;11.72;100.00
30339;BME280;795;49.296;11.348;2023-03-24T10:08:42;95600.84;;;11.83;100.00
30339;BME280;795;49.296;11.348;2023-03-24T10:11:45;95494.22;;;11.42;100.00
30339;BME280;795;49.296;11.348;2023-03-24T10:17:48;95520.28;;;12.03;100.00
30339;BME280;795;49.296;11.348;2023-03-24T10:20:53;95600.28;;;12.70;100.00
30339;BME280;795;49.296;11.348;2023-03-24T10:29:26;95551.09;;;13.08;100.00
30339;BME280;795;49.296;11.348;2023-03-24T10:32:11;95533.63;;;12.85;100.00
30339;BME280;795;49.296;11.348;2023-03-24T10:34:47;95535.09;;;13.00;100.00
30339;BME280;795;49.296;11.348;2023-03-24T10:37:17;95571.63;;;13.22;100.00
30339;BME280;795;49.296;11.348;2023-03-24T10:39:44;95462.09;;;12.56;100.00
30339;BME280;795;49.296;11.348;2023-03-24T10:42:23;95491.16;;;13.00;100.00
30339;BME280;795;49.296;11.348;2023-03-24T10:44:51;95537.88;;;13.46;100.00
30339;BME280;795;49.296;11.348;2023-03-24T10:47:29;95555.69;;;13.60;100.00
30339;BME280;795;49.296;11.348;2023-03-24T10:50:05;95528.94;;;13.46;100.00
30339;BME280;795;49.296;11.348;2023-03-24T10:52:46;95514.81;;;13.37;100.00
30339;BME280;795;49.296;11.348;2023-03-24T10:55:19;95549.47;;;13.60;100.00
30339;BME280;795;49.296;11.348;2023-03-24T10:57:55;95509.03;;;13.40;100.00
30339;BME280;795;49.296;11.348;2023-03-24T11:00:29;95543.63;;;13.82;100.00
30339;BME280;795;49.296;11.348;2023-03-24T11:03:04;95544.41;;;14.09;100.00
30339;BME280;795;49.296;11.348;2023-03-24T11:05:38;95544.97;;;14.24;100.00
30339;BME280;795;49.296;11.348;2023-03-24T11:10:44;95550.25;;;14.00;100.00
30339;BME280;795;49.296;11.348;2023-03-24T11:13:31;95526.59;;;13.95;100.00
30339;BME280;795;49.296;11.348;2023-03-24T11:16:15;95523.47;;;13.91;100.00
30339;BME280;795;49.296;11.348;2023-03-24T11:19:15;95566.44;;;13.86;100.00
30339;BME280;795;49.296;11.348;2023-03-24T11:21:47;95551.72;;;13.82;100.00
30339;BME280;795;49.296;11.348;2023-03-24T11:24:18;95459.47;;;13.35;100.00
30339;BME280;795;49.296;11.348;2023-03-24T11:26:59;95519.16;;;13.77;100.00
30339;BME280;795;49.296;11.348;2023-03-24T11:29:37;95563.50;;;14.14;100.00
30339;BME280;795;49.296;11.348;2023-03-24T11:32:20;95521.75;;;14.10;100.00
30339;BME280;795;49.296;11.348;2023-03-24T11:35:06;95553.22;;;14.55;100.00
30339;BME280;795;49.296;11.348;2023-03-24T11:37:36;95523.28;;;14.57;100.00
30339;BME280;795;49.296;11.348;2023-03-24T11:40:23;95538.34;;;14.78;100.00
30339;BME280;795;49.296;11.348;2023-03-24T11:43:00;95529.63;;;14.76;100.00
30339;BME280;795;49.296;11.348;2023-03-24T11:45:44;95449.94;;;14.53;100.00
30339;BME280;795;49.296;11.348;2023-03-24T11:48:34;95532.97;;;15.40;100.00
30339;BME280;795;49.296;11.348;2023-03-24T11:51:08;95446.94;;;14.68;100.00
30339;BME280;795;49.296;11.348;2023-03-24T11:53:51;95454.44;;;14.66;100.00
30339;BME280;795;49.296;11.348;2023-03-24T11:56:47;95515.19;;;15.51;100.00
30339;BME280;795;49.296;11.348;2023-03-24T12:00:16;95521.44;;;15.51;100.00
30339;BME280;795;49.296;11.348;2023-03-24T12:03:51;95475.25;;;15.21;100.00
30339;BME280;795;49.296;11.348;2023-03-24T12:13:13;95500.69;;;18.82;96.15
30339;BME280;795;49.296;11.348;2023-03-24T12:25:30;95455.78;;;16.71;92.59
30339;BME280;795;49.296;11.348;2023-03-24T12:28:50;95486.00;;;16.20;100.00
30339;BME280;795;49.296;11.348;2023-03-24T12:35:33;95401.00;;;14.75;100.00
30339;BME280;795;49.296;11.348;2023-03-24T12:38:41;95455.16;;;14.86;100.00
30339;BME280;795;49.296;11.348;2023-03-24T12:47:48;95447.41;;;14.65;100.00
30339;BME280;795;49.296;11.348;2023-03-24T12:50:51;95464.75;;;14.82;100.00
30339;BME280;795;49.296;11.348;2023-03-24T12:56:54;95449.13;;;15.40;100.00
30339;BME280;795;49.296;11.348;2023-03-24T13:00:03;95440.03;;;16.14;100.00
30339;BME280;795;49.296;11.348;2023-03-24T13:02:53;95367.22;;;16.35;99.46
30339;BME280;795;49.296;11.348;2023-03-24T13:05:34;95445.66;;;18.24;86.82
30339;BME280;795;49.296;11.348;2023-03-24T13:08:22;95427.63;;;18.86;79.38
30339;BME280;795;49.296;11.348;2023-03-24T13:11:04;95437.75;;;18.22;82.15
30339;BME280;795;49.296;11.348;2023-03-24T13:13:42;95404.84;;;17.38;82.37
30339;BME280;795;49.296;11.348;2023-03-24T13:16:21;95433.69;;;17.62;83.51
30339;BME280;795;49.296;11.348;2023-03-24T13:18:56;95264.03;;;16.25;87.12
30339;BME280;795;49.296;11.348;2023-03-24T13:21:26;95384.56;;;16.64;85.24
30339;BME280;795;49.296;11.348;2023-03-24T13:24:12;95431.63;;;16.81;86.00
30339;BME280;795;49.296;11.348;2023-03-24T13:27:27;95441.25;;;17.07;86.33
30339;BME280;795;49.296;11.348;2023-03-24T13:33:16;95376.53;;;16.57;83.89
30339;BME280;795;49.296;11.348;2023-03-24T13:36:34;95161.97;;;14.95;84.30
30339;BME280;795;49.296;11.348;2023-03-24T13:39:14;95390.84;;;15.99;87.56
30339;BME280;795;49.296;11.348;2023-03-24T13:41:51;95430.31;;;16.06;90.79
30339;BME280;795;49.296;11.348;2023-03-24T13:44:47;95354.56;;;15.09;92.64
30339;BME280;795;49.296;11.348;2023-03-24T13:47:17;95425.50;;;15.54;93.69
30339;BME280;795;49.296;11.348;2023-03-24T13:50:02;95407.16;;;15.56;94.69
30339;BME280;795;49.296;11.348;2023-03-24T13:52:43;95384.91;;;15.54;94.10
30339;BME280;795;49.296;11.348;2023-03-24T13:55:27;95436.75;;;15.51;92.39
30339;BME280;795;49.296;11.348;2023-03-24T13:57:59;95432.34;;;15.32;95.71
30339;BME280;795;49.296;11.348;2023-03-24T14:00:30;95429.09;;;15.23;97.31
30339;BME280;795;49.296;11.348;2023-03-24T14:03:30;95426.16;;;15.24;95.09
30339;BME280;795;49.296;11.348;2023-03-24T14:06:03;95430.22;;;15.34;96.09
30339;BME280;795;49.296;11.348;2023-03-24T14:14:18;95389.16;;;14.00;100.00
30339;BME280;795;49.296;11.348;2023-03-24T14:22:39;95431.88;;;12.87;100.00
30339;BME280;795;49.296;11.348;2023-03-24T14:25:25;95441.59;;;12.75;100.00
30339;BME280;795;49.296;11.348;2023-03-24T14:28:19;95447.41;;;12.72;100.00
30339;BME280;795;49.296;11.348;2023-03-24T14:31:27;95436.41;;;12.60;100.00
30339;BME280;795;49.296;11.348;2023-03-24T14:36:40;95376.75;;;12.43;100.00
30339;BME280;795;49.296;11.348;2023-03-24T14:47:59;95373.56;;;13.58;100.00
30339;BME280;795;49.296;11.348;2023-03-24T14:50:28;95373.94;;;13.68;100.00
30339;BME280;795;49.296;11.348;2023-03-24T14:53:02;95377.66;;;13.67;100.00
30339;BME280;795;49.296;11.348;2023-03-24T14:55:30;95342.25;;;13.50;100.00
30339;BME280;795;49.296;11.348;2023-03-24T14:58:10;95423.47;;;13.86;100.00
30339;BME280;795;49.296;11.348;2023-03-24T15:00:53;95409.22;;;13.60;100.00
30339;BME280;795;49.296;11.348;2023-03-24T15:03:59;95368.06;;;13.13;100.00
30339;BME280;795;49.296;11.348;2023-03-24T15:06:26;95366.22;;;13.07;100.00
30339;BME280;795;49.296;11.348;2023-03-24T15:08:59;95461.72;;;13.57;100.00
30339;BME280;795;49.296;11.348;2023-03-24T15:11:38;95460.25;;;13.55;100.00
30339;BME280;795;49.296;11.348;2023-03-24T15:14:22;95440.00;;;13.06;100.00
30339;BME280;795;49.296;11.348;2023-03-24T15:17:00;95440.78;;;12.87;100.00
30339;BME280;795;49.296;11.348;2023-03-24T15:19:30;95452.41;;;12.88;100.00
30339;BME280;795;49.296;11.348;2023-03-24T15:22:05;95470.22;;;12.89;100.00
30339;BME280;795;49.296;11.348;2023-03-24T15:24:37;95484.72;;;12.88;100.00
30339;BME280;795;49.296;11.348;2023-03-24T15:29:41;95418.50;;;11.66;100.00
30339;BME280;795;49.296;11.348;2023-03-24T15:32:22;95514.41;;;11.59;100.00